TAF KRSW
KRSW 280539Z 2806/2906 VRB03KT P6SM SCT250 FM281600 30006KT P6SM SCT120 SCT250 FM290200 03005KT P6SM SCT100 BKN250 FM290500 01003KT P6SM BKN100=
METAR KRSW
WC KRSW
WS KRSW
WV KRSW